createdAt,value
2023-04-22T00:01:07.174Z,14.93
2023-04-22T00:03:33.893Z,14.72
2023-04-22T00:06:00.927Z,14.55
2023-04-22T00:08:27.404Z,14.32
2023-04-22T00:10:53.795Z,14.21
2023-04-22T00:13:20.165Z,14.14
2023-04-22T00:15:46.566Z,14.14
2023-04-22T00:18:14.125Z,14.10
2023-04-22T00:20:40.775Z,13.98
2023-04-22T00:23:07.193Z,14.04
2023-04-22T00:25:33.608Z,14.09
2023-04-22T00:28:00.010Z,13.86
2023-04-22T00:30:26.422Z,13.68
2023-04-22T00:32:52.853Z,13.69
2023-04-22T00:35:19.233Z,13.80
2023-04-22T00:37:45.748Z,14.04
2023-04-22T00:40:12.169Z,14.32
2023-04-22T00:42:38.724Z,14.12
2023-04-22T00:45:05.868Z,14.35
2023-04-22T00:47:32.392Z,14.03
2023-04-22T00:49:58.754Z,14.10
2023-04-22T00:52:25.129Z,13.99
2023-04-22T00:54:52.362Z,14.04
2023-04-22T00:57:18.840Z,14.21
2023-04-22T00:59:45.207Z,14.18
2023-04-22T01:02:11.708Z,14.41
2023-04-22T01:04:38.135Z,14.12
2023-04-22T01:07:04.691Z,14.13
2023-04-22T01:09:31.064Z,14.32
2023-04-22T01:11:57.447Z,14.12
2023-04-22T01:14:23.870Z,14.06
2023-04-22T01:16:50.541Z,13.99
2023-04-22T01:19:17.098Z,13.90
2023-04-22T01:21:45.015Z,13.98
2023-04-22T01:24:11.424Z,13.63
2023-04-22T01:26:37.752Z,13.59
2023-04-22T01:29:04.223Z,14.07
2023-04-22T01:31:30.617Z,13.78
2023-04-22T01:33:57.800Z,13.91
2023-04-22T01:36:25.014Z,13.72
2023-04-22T01:38:51.423Z,14.32
2023-04-22T01:41:17.841Z,14.27
2023-04-22T01:43:44.189Z,14.29
2023-04-22T01:46:10.771Z,14.02
2023-04-22T01:48:37.199Z,14.03
2023-04-22T01:51:03.569Z,14.05
2023-04-22T01:53:30.053Z,14.18
2023-04-22T01:55:56.417Z,14.24
2023-04-22T01:58:22.803Z,14.18
2023-04-22T02:00:49.596Z,14.09
2023-04-22T02:03:16.199Z,13.99
2023-04-22T02:05:42.575Z,13.76
2023-04-22T02:08:09.045Z,13.94
2023-04-22T02:10:35.998Z,13.76
2023-04-22T02:13:02.398Z,13.84
2023-04-22T02:15:29.314Z,13.87
2023-04-22T02:17:55.833Z,13.73
2023-04-22T02:20:22.307Z,13.87
2023-04-22T02:22:48.707Z,13.96
2023-04-22T02:25:15.064Z,14.13
2023-04-22T02:27:42.126Z,14.08
2023-04-22T02:30:08.629Z,13.99
2023-04-22T02:32:36.833Z,14.18
2023-04-22T02:35:03.290Z,14.03
2023-04-22T02:37:29.605Z,14.16
2023-04-22T02:39:55.974Z,14.22
2023-04-22T02:42:22.348Z,14.21
2023-04-22T02:44:48.754Z,14.03
2023-04-22T02:47:15.099Z,14.22
2023-04-22T02:49:41.674Z,13.91
2023-04-22T02:52:09.034Z,14.50
2023-04-22T02:54:35.501Z,14.54
2023-04-22T02:57:02.891Z,14.30
2023-04-22T02:59:29.269Z,14.03
2023-04-22T03:01:55.810Z,14.27
2023-04-22T03:04:54.419Z,13.95
2023-04-22T03:07:21.110Z,13.90
2023-04-22T03:09:48.099Z,13.66
2023-04-22T03:12:14.479Z,13.92
2023-04-22T03:14:40.872Z,13.84
2023-04-22T03:17:07.686Z,13.77
2023-04-22T03:19:34.407Z,13.77
2023-04-22T03:22:01.262Z,13.85
2023-04-22T03:24:29.998Z,13.73
2023-04-22T03:26:56.595Z,13.81
2023-04-22T03:29:22.965Z,13.62
2023-04-22T03:31:49.484Z,13.82
2023-04-22T03:34:16.423Z,13.82
2023-04-22T03:36:45.176Z,13.42
2023-04-22T03:39:12.867Z,13.39
2023-04-22T03:41:40.606Z,13.54
2023-04-22T03:44:07.016Z,13.47
2023-04-22T03:46:35.044Z,13.76
2023-04-22T03:49:15.625Z,13.74
2023-04-22T03:51:43.457Z,13.76
2023-04-22T03:54:13.710Z,13.85
2023-04-22T03:56:46.345Z,13.83
2023-04-22T03:59:12.792Z,14.06
2023-04-22T04:01:39.417Z,14.03
2023-04-22T04:04:07.782Z,14.16
2023-04-22T04:06:40.736Z,13.83
2023-04-22T04:09:07.118Z,13.62
2023-04-22T04:11:34.318Z,13.78
2023-04-22T04:14:03.469Z,13.98
2023-04-22T04:16:40.864Z,14.25
2023-04-22T04:19:13.572Z,14.09
2023-04-22T04:21:40.461Z,14.01
2023-04-22T04:24:07.189Z,14.09
2023-04-22T04:26:38.515Z,14.00
2023-04-22T04:29:20.188Z,14.09
2023-04-22T04:31:53.651Z,13.97
2023-04-22T04:34:20.652Z,14.27
2023-04-22T04:36:47.046Z,13.85
2023-04-22T04:39:20.662Z,14.13
2023-04-22T04:41:49.069Z,14.19
2023-04-22T04:44:18.128Z,14.16
2023-04-22T04:46:46.636Z,14.29
2023-04-22T04:49:13.069Z,14.44
2023-04-22T04:51:55.267Z,14.27
2023-04-22T04:54:22.090Z,14.48
2023-04-22T04:56:48.744Z,14.48
2023-04-22T04:59:15.826Z,14.42
2023-04-22T05:01:42.663Z,14.26
2023-04-22T05:06:40.849Z,14.41
2023-04-22T05:09:08.030Z,14.45
2023-04-22T05:11:35.460Z,14.46
2023-04-22T05:14:07.715Z,14.46
2023-04-22T05:16:38.851Z,14.50
2023-04-22T05:19:07.559Z,14.69
2023-04-22T05:21:34.580Z,14.63
2023-04-22T05:24:01.310Z,14.77
2023-04-22T05:26:28.689Z,14.94
2023-04-22T05:28:55.232Z,14.97
2023-04-22T05:31:22.095Z,14.80
2023-04-22T05:33:48.556Z,15.05
2023-04-22T05:36:15.387Z,15.09
2023-04-22T05:38:43.757Z,14.78
2023-04-22T05:41:10.158Z,15.02
2023-04-22T05:43:36.566Z,15.34
2023-04-22T05:46:10.999Z,15.41
2023-04-22T05:48:39.856Z,15.45
2023-04-22T05:51:09.632Z,15.60
2023-04-22T05:53:36.430Z,15.47
2023-04-22T05:56:02.991Z,15.49
2023-04-22T05:58:29.422Z,15.62
2023-04-22T06:01:00.612Z,15.78
2023-04-22T06:03:48.864Z,15.88
2023-04-22T06:06:15.646Z,15.53
2023-04-22T06:08:42.130Z,15.69
2023-04-22T06:11:10.270Z,15.41
2023-04-22T06:13:36.909Z,15.61
2023-04-22T06:16:05.173Z,15.77
2023-04-22T06:18:38.011Z,16.09
2023-04-22T06:21:10.513Z,16.21
2023-04-22T06:23:40.295Z,15.95
2023-04-22T06:26:06.739Z,15.81
2023-04-22T06:28:34.889Z,16.20
2023-04-22T06:31:05.733Z,16.41
2023-04-22T06:33:32.132Z,16.22
2023-04-22T06:35:58.649Z,16.59
2023-04-22T06:38:25.421Z,16.54
2023-04-22T06:41:11.496Z,16.35
2023-04-22T06:43:42.347Z,16.61
2023-04-22T06:46:08.843Z,16.70
2023-04-22T06:48:53.949Z,16.54
2023-04-22T06:51:37.828Z,17.12
2023-04-22T06:54:04.291Z,17.26
2023-04-22T06:56:30.972Z,16.97
2023-04-22T06:58:57.342Z,16.84
2023-04-22T07:01:23.925Z,16.77
2023-04-22T07:03:50.960Z,16.53
2023-04-22T07:06:18.713Z,17.02
2023-04-22T07:08:45.208Z,17.34
2023-04-22T07:11:13.208Z,17.40
2023-04-22T07:14:07.156Z,17.32
2023-04-22T07:16:33.576Z,17.23
2023-04-22T07:18:59.905Z,17.44
2023-04-22T07:21:26.364Z,17.79
2023-04-22T07:23:52.754Z,17.90
2023-04-22T07:26:19.163Z,17.90
2023-04-22T07:28:45.500Z,17.72
2023-04-22T07:31:11.866Z,17.87
2023-04-22T07:33:38.229Z,18.00
2023-04-22T07:36:04.621Z,17.93
2023-04-22T07:38:31.059Z,17.66
2023-04-22T07:40:57.399Z,18.08
2023-04-22T07:43:23.764Z,18.18
2023-04-22T07:45:50.467Z,18.30
2023-04-22T07:48:16.843Z,18.67
2023-04-22T07:50:43.213Z,18.65
2023-04-22T07:53:10.843Z,18.35
2023-04-22T07:55:37.200Z,18.54
2023-04-22T07:58:06.599Z,18.48
2023-04-22T08:00:33.082Z,18.43
2023-04-22T08:02:59.588Z,18.41
2023-04-22T08:05:26.287Z,18.87
2023-04-22T08:07:52.721Z,19.28
2023-04-22T08:10:19.056Z,19.30
2023-04-22T08:12:45.934Z,19.03
2023-04-22T08:15:12.420Z,19.03
2023-04-22T08:17:38.879Z,18.98
2023-04-22T08:20:07.961Z,18.95
2023-04-22T08:22:35.643Z,18.57
2023-04-22T08:25:02.006Z,18.54
2023-04-22T08:27:28.382Z,18.74
2023-04-22T08:29:54.765Z,18.74
2023-04-22T08:32:22.448Z,19.13
2023-04-22T08:34:51.880Z,19.63
2023-04-22T08:37:20.739Z,19.78
2023-04-22T08:39:47.133Z,19.69
2023-04-22T08:42:13.516Z,19.74
2023-04-22T08:44:39.896Z,19.82
2023-04-22T08:47:06.303Z,19.73
2023-04-22T08:49:32.745Z,20.04
2023-04-22T08:51:59.098Z,19.92
2023-04-22T08:54:25.933Z,20.27
2023-04-22T08:56:52.371Z,20.61
2023-04-22T08:59:18.764Z,20.06
2023-04-22T09:01:45.317Z,19.97
2023-04-22T09:04:11.959Z,20.21
2023-04-22T09:06:38.717Z,19.88
2023-04-22T09:09:05.258Z,19.86
2023-04-22T09:11:32.818Z,20.25
2023-04-22T09:13:59.211Z,20.40
2023-04-22T09:16:25.645Z,20.23
2023-04-22T09:18:52.104Z,20.26
2023-04-22T09:21:18.493Z,20.58
2023-04-22T09:23:45.009Z,20.60
2023-04-22T09:26:11.393Z,20.33
2023-04-22T09:28:37.890Z,20.53
2023-04-22T09:31:04.316Z,20.44
2023-04-22T09:33:30.821Z,20.75
2023-04-22T09:35:57.177Z,20.84
2023-04-22T09:38:23.679Z,20.95
2023-04-22T09:40:50.181Z,20.57
2023-04-22T09:43:16.544Z,20.87
2023-04-22T09:45:43.078Z,21.06
2023-04-22T09:48:09.636Z,20.76
2023-04-22T09:50:36.013Z,20.97
2023-04-22T09:53:02.415Z,20.61
2023-04-22T09:55:29.182Z,20.88
2023-04-22T09:57:55.665Z,20.89
2023-04-22T10:00:22.097Z,21.08
2023-04-22T10:02:48.619Z,21.00
2023-04-22T10:05:15.099Z,20.91
2023-04-22T10:07:41.600Z,20.86
2023-04-22T10:10:08.198Z,20.85
2023-04-22T10:12:36.023Z,21.10
2023-04-22T10:15:02.584Z,21.13
2023-04-22T10:17:28.970Z,21.09
2023-04-22T10:19:56.460Z,21.20
2023-04-22T10:22:22.830Z,21.23
2023-04-22T10:24:50.221Z,21.54
2023-04-22T10:27:16.583Z,21.99
2023-04-22T10:29:43.553Z,22.30
2023-04-22T10:32:10.989Z,22.35
2023-04-22T10:34:38.947Z,22.06
2023-04-22T10:37:05.354Z,22.61
2023-04-22T10:39:32.039Z,22.38
2023-04-22T10:41:58.514Z,22.39
2023-04-22T10:44:24.902Z,22.31
2023-04-22T10:46:52.125Z,22.11
2023-04-22T10:49:20.480Z,22.21
2023-04-22T10:51:46.862Z,22.05
2023-04-22T10:54:13.206Z,22.18
2023-04-22T10:56:45.641Z,22.32
2023-04-22T10:59:14.941Z,22.71
2023-04-22T11:01:41.404Z,22.73
2023-04-22T11:04:07.829Z,22.61
2023-04-22T11:06:34.297Z,23.00
2023-04-22T11:09:00.700Z,22.94
2023-04-22T11:11:27.459Z,22.78
2023-04-22T11:13:54.869Z,22.75
2023-04-22T11:16:22.305Z,22.97
2023-04-22T11:18:49.239Z,23.22
2023-04-22T11:21:15.836Z,23.22
2023-04-22T11:23:42.287Z,23.26
2023-04-22T11:26:08.888Z,22.66
2023-04-22T11:28:35.505Z,23.03
2023-04-22T11:31:02.001Z,23.06
2023-04-22T11:33:28.589Z,23.02
2023-04-22T11:35:55.426Z,23.27
2023-04-22T11:38:21.809Z,23.17
2023-04-22T11:40:48.896Z,23.84
2023-04-22T11:43:15.517Z,23.36
2023-04-22T11:45:42.235Z,23.63
2023-04-22T11:48:08.647Z,23.52
2023-04-22T11:50:35.046Z,23.34
2023-04-22T11:53:01.529Z,23.60
2023-04-22T11:55:30.196Z,23.81
2023-04-22T11:57:56.648Z,23.74
2023-04-22T12:00:23.054Z,23.22
2023-04-22T12:02:49.529Z,23.60
2023-04-22T12:05:16.116Z,23.68
2023-04-22T12:07:42.728Z,23.13
2023-04-22T12:10:09.186Z,23.30
2023-04-22T12:12:37.190Z,23.59
2023-04-22T12:15:04.224Z,23.75
2023-04-22T12:17:30.792Z,23.57
2023-04-22T12:19:57.252Z,23.16
2023-04-22T12:22:23.598Z,23.17
2023-04-22T12:24:49.999Z,23.75
2023-04-22T12:27:16.621Z,23.19
2023-04-22T12:29:42.992Z,23.44
2023-04-22T12:32:09.464Z,23.24
2023-04-22T12:34:35.851Z,23.14
2023-04-22T12:37:02.233Z,23.40
2023-04-22T12:39:28.591Z,23.16
2023-04-22T12:41:55.007Z,23.33
2023-04-22T12:44:22.515Z,23.43
2023-04-22T12:46:50.268Z,22.89
2023-04-22T12:49:16.765Z,23.37
2023-04-22T12:51:43.138Z,22.74
2023-04-22T12:54:10.640Z,23.06
2023-04-22T12:56:37.072Z,23.34
2023-04-22T12:59:03.610Z,23.55
2023-04-22T13:01:30.099Z,22.86
2023-04-22T13:03:56.722Z,23.51
2023-04-22T13:06:23.244Z,23.34
2023-04-22T13:08:49.730Z,23.40
2023-04-22T13:11:16.609Z,23.06
2023-04-22T13:13:42.971Z,22.77
2023-04-22T13:16:09.415Z,22.45
2023-04-22T13:18:36.280Z,22.85
2023-04-22T13:21:03.130Z,22.73
2023-04-22T13:23:29.874Z,22.70
2023-04-22T13:25:56.352Z,22.40
2023-04-22T13:28:23.057Z,22.39
2023-04-22T13:30:49.638Z,22.35
2023-04-22T13:33:16.105Z,21.94
2023-04-22T13:35:42.908Z,21.77
2023-04-22T13:38:09.312Z,21.30
2023-04-22T13:40:36.029Z,21.10
2023-04-22T13:43:02.450Z,20.73
2023-04-22T13:45:28.903Z,20.50
2023-04-22T13:47:55.433Z,20.91
2023-04-22T13:50:21.873Z,21.37
2023-04-22T13:52:48.209Z,21.51
2023-04-22T13:55:14.596Z,21.30
2023-04-22T13:57:41.099Z,21.63
2023-04-22T14:00:07.555Z,21.68
2023-04-22T14:02:39.770Z,21.74
2023-04-22T14:05:06.329Z,21.55
2023-04-22T14:07:32.719Z,21.64
2023-04-22T14:09:59.121Z,21.80
2023-04-22T14:12:25.525Z,22.05
2023-04-22T14:14:51.950Z,21.99
2023-04-22T14:17:20.706Z,21.62
2023-04-22T14:19:47.095Z,21.51
2023-04-22T14:22:13.466Z,21.37
2023-04-22T14:24:39.821Z,21.37
2023-04-22T14:27:06.252Z,21.17
2023-04-22T14:29:32.661Z,21.03
2023-04-22T14:31:59.631Z,20.90
2023-04-22T14:34:27.109Z,20.93
2023-04-22T14:36:53.458Z,21.06
2023-04-22T14:39:19.881Z,20.97
2023-04-22T14:41:46.266Z,20.52
2023-04-22T14:44:15.774Z,20.38
2023-04-22T14:46:42.252Z,20.85
2023-04-22T14:49:08.632Z,20.57
2023-04-22T14:51:36.474Z,20.39
2023-04-22T14:54:02.934Z,20.25
2023-04-22T14:56:29.698Z,20.04
2023-04-22T14:58:56.142Z,20.42
2023-04-22T15:01:23.021Z,20.29
2023-04-22T15:03:49.548Z,19.70
2023-04-22T15:06:16.142Z,20.41
2023-04-22T15:08:42.837Z,20.65
2023-04-22T15:11:09.245Z,20.44
2023-04-22T15:13:36.038Z,20.79
2023-04-22T15:16:02.482Z,20.51
2023-04-22T15:18:31.746Z,19.93
2023-04-22T15:20:58.384Z,20.01
2023-04-22T15:23:24.798Z,20.57
2023-04-22T15:25:51.162Z,20.80
2023-04-22T15:28:17.638Z,20.85
2023-04-22T15:30:44.301Z,21.23
2023-04-22T15:33:10.712Z,21.03
2023-04-22T15:35:37.065Z,21.21
2023-04-22T15:38:03.666Z,21.37
2023-04-22T15:40:30.067Z,21.00
2023-04-22T15:42:56.521Z,21.47
2023-04-22T15:45:22.986Z,21.21
2023-04-22T15:47:52.151Z,21.14
2023-04-22T15:50:19.276Z,21.28
2023-04-22T15:52:46.585Z,21.18
2023-04-22T15:55:13.087Z,21.19
2023-04-22T15:57:39.608Z,21.28
2023-04-22T16:00:12.420Z,21.00
2023-04-22T16:02:42.993Z,21.29
2023-04-22T16:05:10.161Z,20.92
2023-04-22T16:07:36.554Z,21.08
2023-04-22T16:10:03.035Z,21.20
2023-04-22T16:12:30.177Z,21.29
2023-04-22T16:14:57.913Z,20.83
2023-04-22T16:17:24.336Z,20.85
2023-04-22T16:19:50.941Z,20.89
2023-04-22T16:22:17.371Z,20.91
2023-04-22T16:24:44.400Z,20.77
2023-04-22T16:27:16.000Z,20.97
2023-04-22T16:29:42.652Z,20.69
2023-04-22T16:32:09.332Z,20.47
2023-04-22T16:34:36.776Z,20.36
2023-04-22T16:37:03.346Z,20.22
2023-04-22T16:39:29.783Z,19.45
2023-04-22T16:41:56.124Z,19.78
2023-04-22T16:44:22.477Z,20.18
2023-04-22T16:46:49.122Z,20.08
2023-04-22T16:49:15.495Z,19.71
2023-04-22T16:51:41.966Z,19.52
2023-04-22T16:54:08.425Z,19.89
2023-04-22T16:56:34.872Z,20.07
2023-04-22T16:59:01.448Z,20.12
2023-04-22T17:01:28.847Z,19.74
2023-04-22T17:03:55.411Z,19.63
2023-04-22T17:06:22.193Z,19.84
2023-04-22T17:08:48.599Z,19.14
2023-04-22T17:11:15.017Z,19.58
2023-04-22T17:13:41.473Z,19.94
2023-04-22T17:16:10.911Z,20.14
2023-04-22T17:18:37.335Z,20.29
2023-04-22T17:21:03.707Z,20.31
2023-04-22T17:23:30.172Z,19.86
2023-04-22T17:25:56.556Z,20.07
2023-04-22T17:28:22.863Z,20.20
2023-04-22T17:30:49.204Z,20.07
2023-04-22T17:33:15.669Z,20.23
2023-04-22T17:35:41.994Z,20.40
2023-04-22T17:38:08.375Z,19.57
2023-04-22T17:40:34.778Z,19.73
2023-04-22T17:43:01.328Z,19.62
2023-04-22T17:45:27.733Z,19.74
2023-04-22T17:47:54.296Z,19.57
2023-04-22T17:50:20.843Z,19.71
2023-04-22T17:52:47.272Z,19.69
2023-04-22T17:55:13.680Z,19.60
2023-04-22T17:57:41.040Z,19.64
2023-04-22T18:00:08.368Z,19.46
2023-04-22T18:02:34.813Z,19.20
2023-04-22T18:05:01.412Z,19.31
2023-04-22T18:07:27.813Z,19.33
2023-04-22T18:09:54.307Z,19.02
2023-04-22T18:12:24.013Z,19.45
2023-04-22T18:14:50.841Z,19.25
2023-04-22T18:17:20.106Z,19.16
2023-04-22T18:19:46.549Z,19.28
2023-04-22T18:22:12.968Z,19.34
2023-04-22T18:24:39.566Z,19.01
2023-04-22T18:27:09.034Z,18.97
2023-04-22T18:29:38.283Z,18.76
2023-04-22T18:32:05.030Z,18.58
2023-04-22T18:34:31.384Z,18.71
2023-04-22T18:36:57.765Z,19.01
2023-04-22T18:39:24.168Z,18.87
2023-04-22T18:41:50.643Z,18.88
2023-04-22T18:44:16.989Z,18.90
2023-04-22T18:46:43.428Z,18.94
2023-04-22T18:49:09.803Z,18.91
2023-04-22T18:51:36.161Z,18.75
2023-04-22T18:54:02.551Z,19.23
2023-04-22T18:56:32.721Z,18.94
2023-04-22T18:58:59.123Z,19.13
2023-04-22T19:01:25.592Z,18.98
2023-04-22T19:03:52.172Z,18.37
2023-04-22T19:06:18.568Z,16.85
2023-04-22T19:08:45.126Z,16.67
2023-04-22T19:11:11.730Z,16.47
2023-04-22T19:13:38.253Z,16.63
2023-04-22T19:16:04.784Z,17.09
2023-04-22T19:18:31.344Z,16.60
2023-04-22T19:20:57.752Z,16.43
2023-04-22T19:23:24.897Z,16.43
2023-04-22T19:25:51.851Z,16.09
2023-04-22T19:28:18.283Z,16.39
2023-04-22T19:30:44.667Z,16.45
2023-04-22T19:33:11.688Z,15.98
2023-04-22T19:35:38.115Z,16.45
2023-04-22T19:38:04.728Z,16.09
2023-04-22T19:40:31.152Z,16.03
2023-04-22T19:42:59.079Z,16.38
2023-04-22T19:45:25.763Z,16.28
2023-04-22T19:47:52.161Z,16.88
2023-04-22T19:50:18.652Z,16.47
2023-04-22T19:52:45.015Z,16.33
2023-04-22T19:55:11.871Z,16.58
2023-04-22T19:57:38.593Z,16.51
2023-04-22T20:00:07.043Z,16.09
2023-04-22T20:02:38.812Z,16.83
2023-04-22T20:05:05.778Z,16.72
2023-04-22T20:07:32.768Z,16.49
2023-04-22T20:09:59.251Z,16.47
2023-04-22T20:12:26.081Z,16.96
2023-04-22T20:14:52.688Z,16.41
2023-04-22T20:17:19.054Z,16.51
2023-04-22T20:19:45.478Z,15.88
2023-04-22T20:22:13.670Z,16.18
2023-04-22T20:24:41.177Z,16.56
2023-04-22T20:27:07.744Z,16.73
2023-04-22T20:29:34.453Z,16.68
2023-04-22T20:32:00.943Z,16.56
2023-04-22T20:34:27.363Z,16.44
2023-04-22T20:36:54.818Z,16.30
2023-04-22T20:39:21.291Z,16.22
2023-04-22T20:41:48.922Z,16.35
2023-04-22T20:44:15.394Z,15.93
2023-04-22T20:46:41.760Z,16.27
2023-04-22T20:49:08.286Z,15.99
2023-04-22T20:51:35.133Z,16.00
2023-04-22T20:54:01.790Z,16.10
2023-04-22T20:56:28.239Z,16.19
2023-04-22T20:58:54.634Z,16.40
2023-04-22T21:01:21.124Z,15.92
2023-04-22T21:03:47.692Z,15.45
2023-04-22T21:06:14.218Z,15.76
2023-04-22T21:08:40.858Z,16.12
2023-04-22T21:11:07.338Z,16.30
2023-04-22T21:13:33.978Z,16.31
2023-04-22T21:16:00.654Z,16.28
2023-04-22T21:18:27.059Z,15.89
2023-04-22T21:20:53.833Z,16.36
2023-04-22T21:23:20.546Z,16.38
2023-04-22T21:25:50.650Z,16.24
2023-04-22T21:28:18.062Z,16.29
2023-04-22T21:30:44.510Z,16.41
2023-04-22T21:33:13.705Z,16.07
2023-04-22T21:35:43.687Z,15.77
2023-04-22T21:38:10.115Z,15.95
2023-04-22T21:40:36.511Z,15.87
2023-04-22T21:43:04.496Z,15.96
2023-04-22T21:45:31.178Z,15.95
2023-04-22T21:48:00.389Z,15.66
2023-04-22T21:50:26.848Z,16.07
2023-04-22T21:52:53.195Z,16.11
2023-04-22T21:55:19.830Z,15.62
2023-04-22T21:57:46.395Z,15.67
2023-04-22T22:00:18.577Z,15.84
2023-04-22T22:02:47.131Z,15.80
2023-04-22T22:05:13.709Z,15.65
2023-04-22T22:07:42.742Z,15.48
2023-04-22T22:10:11.999Z,15.89
2023-04-22T22:12:38.613Z,16.04
2023-04-22T22:15:09.889Z,16.05
2023-04-22T22:17:42.518Z,16.18
2023-04-22T22:20:12.172Z,15.47
2023-04-22T22:22:38.642Z,15.53
2023-04-22T22:25:08.479Z,14.67
2023-04-22T22:27:34.887Z,15.25
2023-04-22T22:30:01.277Z,15.04
2023-04-22T22:32:29.868Z,15.25
2023-04-22T22:34:56.429Z,15.29
2023-04-22T22:37:25.894Z,15.39
2023-04-22T22:39:55.214Z,15.22
2023-04-22T22:42:21.984Z,15.30
2023-04-22T22:44:50.326Z,15.34
2023-04-22T22:47:24.760Z,15.46
2023-04-22T22:49:51.734Z,15.38
2023-04-22T22:52:18.496Z,15.55
2023-04-22T22:54:45.408Z,15.39
2023-04-22T22:57:12.419Z,15.78
2023-04-22T22:59:39.157Z,15.45
2023-04-22T23:02:05.774Z,15.65
2023-04-22T23:04:33.178Z,15.59
2023-04-22T23:07:02.246Z,16.22
2023-04-22T23:09:31.339Z,16.19
2023-04-22T23:11:57.883Z,15.50
2023-04-22T23:14:24.265Z,15.55
2023-04-22T23:16:54.142Z,15.38
2023-04-22T23:19:23.599Z,15.79
2023-04-22T23:21:50.047Z,15.54
2023-04-22T23:24:16.799Z,15.91
2023-04-22T23:26:43.237Z,16.41
2023-04-22T23:29:09.925Z,16.33
2023-04-22T23:31:36.353Z,16.02
2023-04-22T23:34:02.777Z,15.96
2023-04-22T23:36:29.147Z,16.14
2023-04-22T23:38:57.753Z,16.55
2023-04-22T23:41:24.322Z,16.64
2023-04-22T23:43:50.726Z,16.55
2023-04-22T23:46:18.679Z,16.12
2023-04-22T23:48:45.425Z,16.22
2023-04-22T23:51:16.022Z,16.08
2023-04-22T23:53:42.405Z,16.15
2023-04-22T23:56:09.277Z,16.20
2023-04-22T23:58:35.712Z,16.17
